Time;durP1;ratioP1;P1;durP2;ratioP2;P2;SDS_P1;SDS_P2;PMS_P1;PMS_P2;Temp;Humidity;BMP_temperature;BMP_pressure;BME280_temperature;BME280_humidity;BME280_pressure;Samples;Min_cycle;Max_cycle;Signal;HPM_P1;HPM_P2
2021/11/29 00:02:17;;;;;;;7.47;1.40;;;;;;;;;;4959380;28;20026;-88
2021/11/29 00:04:44;;;;;;;7.80;1.75;;;;;;;;;;4981067;28;20042;-88
2021/11/29 00:07:10;;;;;;;6.63;1.60;;;;;;;;;;4975878;28;20049;-88
2021/11/29 00:09:37;;;;;;;6.55;1.80;;;;;;;;;;4967112;28;20125;-88
2021/11/29 00:12:04;;;;;;;9.80;1.88;;;;;;;;;;4968904;28;20049;-88
2021/11/29 00:14:30;;;;;;;7.43;1.85;;;;;;;;;;4978409;28;20033;-88
2021/11/29 00:16:57;;;;;;;9.75;1.67;;;;;;;;;;4969183;28;20635;-88
2021/11/29 00:19:23;;;;;;;8.82;1.65;;;;;;;;;;4973181;28;20037;-89
2021/11/29 00:21:50;;;;;;;10.65;1.65;;;;;;;;;;4979662;28;20117;-88
2021/11/29 00:24:16;;;;;;;7.50;1.55;;;;;;;;;;4964550;28;20038;-88
2021/11/29 00:26:42;;;;;;;8.48;1.75;;;;;;;;;;4963749;28;20037;-87
2021/11/29 00:29:08;;;;;;;5.38;1.00;;;;;;;;;;4980581;28;20067;-87
2021/11/29 00:31:34;;;;;;;8.63;1.77;;;;;;;;;;4983298;28;20509;-88
2021/11/29 00:34:01;;;;;;;6.38;1.40;;;;;;;;;;4965477;28;20095;-88
2021/11/29 00:36:27;;;;;;;6.60;1.00;;;;;;;;;;4976475;28;20030;-89
2021/11/29 00:38:53;;;;;;;8.30;1.58;;;;;;;;;;4980129;28;20042;-88
2021/11/29 00:41:19;;;;;;;6.18;1.40;;;;;;;;;;4977921;28;20072;-89
2021/11/29 00:43:45;;;;;;;7.63;1.50;;;;;;;;;;4969811;28;20616;-88
2021/11/29 00:46:11;;;;;;;8.52;1.20;;;;;;;;;;4986703;28;20045;-89
2021/11/29 00:48:38;;;;;;;10.50;2.28;;;;;;;;;;4992924;28;20038;-88
2021/11/29 00:51:04;;;;;;;8.18;1.50;;;;;;;;;;5000471;28;20053;-88
2021/11/29 00:53:30;;;;;;;9.00;1.60;;;;;;;;;;4987731;28;20038;-89
2021/11/29 00:55:56;;;;;;;11.35;1.92;;;;;;;;;;5006715;28;20061;-89
2021/11/29 00:58:22;;;;;;;8.68;1.88;;;;;;;;;;4968093;28;20410;-89
2021/11/29 01:00:49;;;;;;;7.15;1.42;;;;;;;;;;4975140;28;20032;-88
2021/11/29 01:03:15;;;;;;;9.18;1.60;;;;;;;;;;4977322;28;20034;-86
2021/11/29 01:05:41;;;;;;;14.95;2.42;;;;;;;;;;4977186;28;20029;-86
2021/11/29 01:08:07;;;;;;;13.02;2.13;;;;;;;;;;4972529;28;20037;-87
2021/11/29 01:10:34;;;;;;;8.75;1.60;;;;;;;;;;4964541;28;20060;-86
2021/11/29 01:13:00;;;;;;;9.00;1.65;;;;;;;;;;4962136;28;20034;-87
2021/11/29 01:15:30;;;;;;;7.00;1.52;;;;;;;;;;4985105;28;20837;-86
2021/11/29 01:17:57;;;;;;;6.90;1.42;;;;;;;;;;4967071;28;20893;-85
2021/11/29 01:20:23;;;;;;;;;;;;;;;;;;4975508;28;20030;-86
2021/11/29 01:22:49;;;;;;;7.95;1.38;;;;;;;;;;4959248;28;19971;-85
2021/11/29 01:25:16;;;;;;;6.45;1.08;;;;;;;;;;4966240;28;20041;-86
2021/11/29 01:27:42;;;;;;;6.25;1.10;;;;;;;;;;4965699;28;20037;-87
2021/11/29 01:30:09;;;;;;;6.78;0.95;;;;;;;;;;4959004;28;20131;-86
2021/11/29 01:32:35;;;;;;;8.18;1.25;;;;;;;;;;4964490;28;20041;-87
2021/11/29 01:35:01;;;;;;;4.38;1.00;;;;;;;;;;4963313;28;20065;-86
2021/11/29 01:37:27;;;;;;;6.25;1.20;;;;;;;;;;4963677;28;20101;-87
2021/11/29 01:39:53;;;;;;;5.68;0.90;;;;;;;;;;4965605;28;20041;-87
2021/11/29 01:42:20;;;;;;;6.10;0.93;;;;;;;;;;4958129;28;20034;-87
2021/11/29 01:44:46;;;;;;;8.18;1.40;;;;;;;;;;4977161;28;20489;-86
2021/11/29 01:47:12;;;;;;;10.70;1.85;;;;;;;;;;4967748;28;20037;-86
2021/11/29 01:49:38;;;;;;;6.88;1.15;;;;;;;;;;4977855;28;20041;-87
2021/11/29 01:52:04;;;;;;;6.32;1.00;;;;;;;;;;4977784;28;20659;-86
2021/11/29 01:54:31;;;;;;;5.75;0.80;;;;;;;;;;4979605;28;20041;-86
2021/11/29 01:56:57;;;;;;;6.18;1.10;;;;;;;;;;4964245;28;20654;-87
2021/11/29 01:59:23;;;;;;;8.40;1.38;;;;;;;;;;4979469;28;20036;-87
2021/11/29 02:01:49;;;;;;;5.90;1.20;;;;;;;;;;4964266;28;20538;-86
2021/11/29 02:04:16;;;;;;;6.28;1.15;;;;;;;;;;4959831;28;20026;-86
2021/11/29 02:06:42;;;;;;;7.55;1.08;;;;;;;;;;4965718;28;20045;-87
2021/11/29 02:09:10;;;;;;;7.72;1.38;;;;;;;;;;4972960;28;20041;-86
2021/11/29 02:11:36;;;;;;;8.55;1.23;;;;;;;;;;4961419;28;20089;-85
2021/11/29 02:14:02;;;;;;;;;;;;;;;;;;4955016;28;20058;-85
2021/11/29 02:16:30;;;;;;;7.85;1.27;;;;;;;;;;4954277;28;19998;-85
2021/11/29 02:18:57;;;;;;;7.22;1.13;;;;;;;;;;4978971;28;20037;-85
2021/11/29 02:21:24;;;;;;;8.70;1.30;;;;;;;;;;4953315;28;20445;-85
2021/11/29 02:23:52;;;;;;;5.88;1.25;;;;;;;;;;4980597;28;20453;-84
2021/11/29 02:26:19;;;;;;;9.05;1.50;;;;;;;;;;4957061;28;20580;-85
2021/11/29 02:28:48;;;;;;;7.47;1.10;;;;;;;;;;4956719;28;20045;-84
2021/11/29 02:31:16;;;;;;;4.65;1.00;;;;;;;;;;4959729;28;20038;-84
2021/11/29 02:33:42;;;;;;;7.07;0.93;;;;;;;;;;4974936;28;20050;-83
2021/11/29 02:36:14;;;;;;;9.80;1.23;;;;;;;;;;4954929;28;20053;-86
2021/11/29 02:38:41;;;;;;;12.32;1.30;;;;;;;;;;4960407;28;20834;-85
2021/11/29 02:41:07;;;;;;;9.55;1.20;;;;;;;;;;4956677;28;20132;-86
2021/11/29 02:43:34;;;;;;;7.38;1.20;;;;;;;;;;4974441;28;20117;-85
2021/11/29 02:46:00;;;;;;;;;;;;;;;;;;4973219;28;20715;-84
2021/11/29 02:48:43;;;;;;;5.65;1.00;;;;;;;;;;4960376;28;20587;-85
2021/11/29 02:51:17;;;;;;;7.13;0.90;;;;;;;;;;4956616;28;20129;-85
2021/11/29 02:53:44;;;;;;;11.00;1.17;;;;;;;;;;4960209;28;20151;-84
2021/11/29 02:56:10;;;;;;;5.50;0.80;;;;;;;;;;4966238;28;20029;-86
2021/11/29 02:58:40;;;;;;;6.50;1.02;;;;;;;;;;4965111;28;20038;-85
2021/11/29 03:01:06;;;;;;;7.95;1.08;;;;;;;;;;4974531;28;20761;-85
2021/11/29 03:03:32;;;;;;;5.38;0.80;;;;;;;;;;4961913;28;20851;-85
2021/11/29 03:05:58;;;;;;;7.22;0.95;;;;;;;;;;4975732;28;20032;-85
2021/11/29 03:08:25;;;;;;;10.02;1.10;;;;;;;;;;4968739;28;20026;-86
2021/11/29 03:10:51;;;;;;;9.15;1.23;;;;;;;;;;4972867;28;20659;-85
2021/11/29 03:13:17;;;;;;;6.45;1.00;;;;;;;;;;4971614;28;20084;-84
2021/11/29 03:15:48;;;;;;;10.27;1.08;;;;;;;;;;4957940;28;20049;-85
2021/11/29 03:18:14;;;;;;;7.05;1.00;;;;;;;;;;4963186;28;20037;-84
2021/11/29 03:20:42;;;;;;;8.95;1.25;;;;;;;;;;4972440;28;20049;-85
2021/11/29 03:23:12;;;;;;;8.20;1.40;;;;;;;;;;4953337;28;20156;-84
2021/11/29 03:25:38;;;;;;;6.93;1.20;;;;;;;;;;4958774;28;20088;-85
2021/11/29 03:28:04;;;;;;;6.93;1.20;;;;;;;;;;4955985;28;20568;-85
2021/11/29 03:30:30;;;;;;;7.32;1.08;;;;;;;;;;4957660;28;20042;-84
2021/11/29 03:32:57;;;;;;;9.93;1.30;;;;;;;;;;4964761;28;20551;-85
2021/11/29 03:35:23;;;;;;;10.80;1.13;;;;;;;;;;4951639;28;20378;-85
2021/11/29 03:37:49;;;;;;;10.70;1.88;;;;;;;;;;4965865;28;20038;-85
2021/11/29 03:40:15;;;;;;;9.48;1.45;;;;;;;;;;4964596;28;20034;-85
2021/11/29 03:42:41;;;;;;;10.35;1.58;;;;;;;;;;4974392;28;20034;-85
2021/11/29 03:45:08;;;;;;;5.57;1.02;;;;;;;;;;4975669;28;20034;-86
2021/11/29 03:47:34;;;;;;;9.70;1.10;;;;;;;;;;4960961;28;20037;-85
2021/11/29 03:50:00;;;;;;;9.80;1.50;;;;;;;;;;4973670;28;20494;-85
2021/11/29 03:52:27;;;;;;;6.55;1.20;;;;;;;;;;4975516;28;20038;-85
2021/11/29 03:54:53;;;;;;;9.02;1.55;;;;;;;;;;4975402;28;20095;-86
2021/11/29 03:57:19;;;;;;;9.65;1.33;;;;;;;;;;4955358;28;20038;-85
2021/11/29 03:59:46;;;;;;;6.95;1.20;;;;;;;;;;4957771;28;20061;-84
2021/11/29 04:02:12;;;;;;;8.57;1.35;;;;;;;;;;4946006;28;20045;-85
2021/11/29 04:04:38;;;;;;;7.60;1.20;;;;;;;;;;4977474;28;20042;-84
2021/11/29 04:07:05;;;;;;;6.85;1.13;;;;;;;;;;4965686;28;20635;-85
2021/11/29 04:09:31;;;;;;;7.28;1.20;;;;;;;;;;4964918;28;20645;-85
2021/11/29 04:11:57;;;;;;;8.77;1.33;;;;;;;;;;4959267;28;20062;-85
2021/11/29 04:14:24;;;;;;;16.27;1.90;;;;;;;;;;4970482;28;20022;-84
2021/11/29 04:16:50;;;;;;;11.73;1.60;;;;;;;;;;4962044;28;20034;-85
2021/11/29 04:19:16;;;;;;;9.73;1.30;;;;;;;;;;4954443;28;20686;-85
2021/11/29 04:21:43;;;;;;;6.78;1.02;;;;;;;;;;4968782;28;20033;-85
2021/11/29 04:24:10;;;;;;;5.82;1.00;;;;;;;;;;4974180;28;20049;-85
2021/11/29 04:26:38;;;;;;;9.50;1.35;;;;;;;;;;4959186;28;20073;-85
2021/11/29 04:29:15;;;;;;;6.35;1.10;;;;;;;;;;4953305;28;20068;-85
2021/11/29 04:31:41;;;;;;;9.98;1.27;;;;;;;;;;4958317;28;20870;-85
2021/11/29 04:34:08;;;;;;;7.78;0.90;;;;;;;;;;4972621;28;20076;-85
2021/11/29 04:36:34;;;;;;;6.15;0.88;;;;;;;;;;4961361;28;20483;-85
2021/11/29 04:39:01;;;;;;;5.05;0.88;;;;;;;;;;4957046;28;20543;-85
2021/11/29 04:41:27;;;;;;;5.13;0.90;;;;;;;;;;4977514;28;20025;-86
2021/11/29 04:43:53;;;;;;;6.35;0.88;;;;;;;;;;4957482;28;20261;-85
2021/11/29 04:46:20;;;;;;;7.30;1.02;;;;;;;;;;4954137;28;20042;-85
2021/11/29 04:48:46;;;;;;;7.28;1.20;;;;;;;;;;4976947;28;20029;-86
2021/11/29 04:51:12;;;;;;;9.38;1.15;;;;;;;;;;4956656;28;20046;-86
2021/11/29 04:53:41;;;;;;;3.85;0.80;;;;;;;;;;4980001;28;20785;-85
2021/11/29 04:56:07;;;;;;;6.20;1.10;;;;;;;;;;4963692;28;20584;-86
2021/11/29 04:58:33;;;;;;;7.53;0.93;;;;;;;;;;4960538;28;20030;-85
2021/11/29 05:01:00;;;;;;;7.70;1.42;;;;;;;;;;4960983;28;20691;-86
2021/11/29 05:03:26;;;;;;;6.82;0.93;;;;;;;;;;4958956;28;20038;-85
2021/11/29 05:05:52;;;;;;;8.25;1.48;;;;;;;;;;4976615;28;20048;-85
2021/11/29 05:08:18;;;;;;;;;;;;;;;;;;4957806;28;20030;-86
2021/11/29 05:10:44;;;;;;;7.22;1.30;;;;;;;;;;4956363;28;19921;-86
2021/11/29 05:13:12;;;;;;;6.65;1.40;;;;;;;;;;4956346;28;20527;-85
2021/11/29 05:15:38;;;;;;;7.07;1.05;;;;;;;;;;4975162;28;20045;-85
2021/11/29 05:18:05;;;;;;;6.57;1.40;;;;;;;;;;4954778;28;20037;-84
2021/11/29 05:20:31;;;;;;;6.93;1.13;;;;;;;;;;4961171;28;20025;-85
2021/11/29 05:22:57;;;;;;;5.15;0.93;;;;;;;;;;4973542;28;20038;-85
2021/11/29 05:25:24;;;;;;;4.60;0.80;;;;;;;;;;4972876;28;20136;-86
2021/11/29 05:27:50;;;;;;;10.45;1.30;;;;;;;;;;4976966;28;21606;-85
2021/11/29 05:30:16;;;;;;;6.40;0.90;;;;;;;;;;4959290;28;21404;-85
2021/11/29 05:32:42;;;;;;;8.32;1.10;;;;;;;;;;4980008;28;20124;-85
2021/11/29 05:35:09;;;;;;;7.63;0.90;;;;;;;;;;4977631;28;20045;-85
2021/11/29 05:37:35;;;;;;;6.60;0.93;;;;;;;;;;4961191;28;20033;-85
2021/11/29 05:40:02;;;;;;;5.53;0.80;;;;;;;;;;4958776;28;20030;-85
2021/11/29 05:42:28;;;;;;;;;;;;;;;;;;4964442;28;20038;-84
2021/11/29 05:44:54;;;;;;;7.22;1.20;;;;;;;;;;4981808;28;20388;-85
2021/11/29 05:47:20;;;;;;;;;;;;;;;;;;4956204;28;20178;-84
2021/11/29 05:49:47;;;;;;;9.75;1.30;;;;;;;;;;4967059;28;20014;-84
2021/11/29 05:52:14;;;;;;;7.70;1.02;;;;;;;;;;4973857;28;20049;-84
2021/11/29 05:54:40;;;;;;;5.47;1.23;;;;;;;;;;4961274;28;20068;-85
2021/11/29 05:57:06;;;;;;;;;;;;;;;;;;4975388;28;20049;-85
2021/11/29 05:59:33;;;;;;;5.13;0.73;;;;;;;;;;4979057;28;19909;-84
2021/11/29 06:02:00;;;;;;;5.85;0.90;;;;;;;;;;4980678;28;20698;-84
2021/11/29 06:04:26;;;;;;;10.15;1.30;;;;;;;;;;4961300;28;20031;-85
2021/11/29 06:06:52;;;;;;;6.20;1.20;;;;;;;;;;4960713;28;20033;-85
2021/11/29 06:09:19;;;;;;;;;;;;;;;;;;4960152;28;20528;-85
2021/11/29 06:11:45;;;;;;;4.30;0.80;;;;;;;;;;4961457;28;19917;-85
2021/11/29 06:14:11;;;;;;;7.57;0.82;;;;;;;;;;4975383;28;20040;-85
2021/11/29 06:16:37;;;;;;;10.63;1.10;;;;;;;;;;4957882;28;20247;-84
2021/11/29 06:19:04;;;;;;;9.13;1.17;;;;;;;;;;4972672;28;20049;-84
2021/11/29 06:21:32;;;;;;;8.88;1.10;;;;;;;;;;4962521;28;20104;-84
2021/11/29 06:23:58;;;;;;;6.25;1.27;;;;;;;;;;4961024;28;20038;-84
2021/11/29 06:26:25;;;;;;;5.72;0.80;;;;;;;;;;4957891;28;20069;-85
2021/11/29 06:28:51;;;;;;;5.55;1.00;;;;;;;;;;4976073;28;20045;-84
2021/11/29 06:31:17;;;;;;;7.55;1.40;;;;;;;;;;4971034;28;20046;-84
2021/11/29 06:33:43;;;;;;;8.43;1.65;;;;;;;;;;4961160;28;20045;-85
2021/11/29 06:36:10;;;;;;;7.03;0.90;;;;;;;;;;4957129;28;20034;-87
2021/11/29 06:38:36;;;;;;;7.75;1.40;;;;;;;;;;4962397;28;20048;-87
2021/11/29 06:41:03;;;;;;;6.55;1.00;;;;;;;;;;4957448;28;20092;-88
2021/11/29 06:43:29;;;;;;;4.93;1.05;;;;;;;;;;4963546;28;20115;-86
2021/11/29 06:45:55;;;;;;;4.93;1.20;;;;;;;;;;4963228;28;20045;-88
2021/11/29 06:48:22;;;;;;;4.15;1.15;;;;;;;;;;4977341;28;20088;-85
2021/11/29 06:50:48;;;;;;;;;;;;;;;;;;4963288;28;20489;-88
2021/11/29 06:53:15;;;;;;;3.90;0.77;;;;;;;;;;4981286;28;19917;-86
2021/11/29 06:55:43;;;;;;;7.47;1.20;;;;;;;;;;4961613;28;20120;-87
2021/11/29 06:58:10;;;;;;;5.25;1.00;;;;;;;;;;4970278;28;20802;-88
2021/11/29 07:00:36;;;;;;;5.90;1.08;;;;;;;;;;4969576;28;20152;-87
2021/11/29 07:03:02;;;;;;;4.43;0.80;;;;;;;;;;4991996;28;20029;-86
2021/11/29 07:05:29;;;;;;;5.13;1.23;;;;;;;;;;4984148;28;20018;-87
2021/11/29 07:07:56;;;;;;;3.50;0.70;;;;;;;;;;4997527;28;20034;-88
2021/11/29 07:10:24;;;;;;;5.95;0.82;;;;;;;;;;4994066;28;20037;-89
2021/11/29 07:12:51;;;;;;;5.47;1.00;;;;;;;;;;4979252;28;20034;-89
2021/11/29 07:15:18;;;;;;;7.90;1.63;;;;;;;;;;4964744;28;20045;-90
2021/11/29 07:17:44;;;;;;;4.47;1.20;;;;;;;;;;4972849;28;20513;-88
2021/11/29 07:20:11;;;;;;;9.50;1.48;;;;;;;;;;4982672;28;20156;-88
2021/11/29 07:22:37;;;;;;;;;;;;;;;;;;4981800;28;20038;-89
2021/11/29 07:25:04;;;;;;;3.95;0.90;;;;;;;;;;4984524;28;19917;-88
2021/11/29 07:27:31;;;;;;;3.60;0.98;;;;;;;;;;4997710;28;20100;-89
2021/11/29 07:29:58;;;;;;;4.28;1.00;;;;;;;;;;4983030;28;20681;-89
2021/11/29 07:32:25;;;;;;;;;;;;;;;;;;4995531;28;20068;-89
2021/11/29 07:34:51;;;;;;;6.60;1.48;;;;;;;;;;4984279;28;19929;-88
2021/11/29 07:37:19;;;;;;;6.25;1.40;;;;;;;;;;4980907;28;20062;-88
2021/11/29 07:39:45;;;;;;;8.55;2.58;;;;;;;;;;4992156;28;20485;-88
2021/11/29 07:42:11;;;;;;;;;;;;;;;;;;4984896;28;20077;-89
2021/11/29 07:44:38;;;;;;;8.23;3.00;;;;;;;;;;4983597;28;19945;-88
2021/11/29 07:47:04;;;;;;;10.52;3.10;;;;;;;;;;4981656;28;20066;-88
2021/11/29 07:49:30;;;;;;;9.40;3.30;;;;;;;;;;4990024;28;20818;-90
2021/11/29 07:51:57;;;;;;;10.32;2.47;;;;;;;;;;4994687;28;20034;-89
2021/11/29 07:54:23;;;;;;;8.18;1.58;;;;;;;;;;4997173;28;20042;-89
2021/11/29 07:56:49;;;;;;;7.75;1.48;;;;;;;;;;4995882;28;20032;-88
2021/11/29 07:59:15;;;;;;;8.07;1.15;;;;;;;;;;4975934;28;20105;-88
2021/11/29 08:01:41;;;;;;;4.93;1.20;;;;;;;;;;4995302;28;20093;-88
2021/11/29 08:04:08;;;;;;;4.47;1.13;;;;;;;;;;4998989;28;20049;-89
2021/11/29 08:06:34;;;;;;;;;;;;;;;;;;5002106;28;20083;-88
2021/11/29 08:09:01;;;;;;;6.50;1.00;;;;;;;;;;4984040;28;19917;-89
2021/11/29 08:11:27;;;;;;;4.38;0.98;;;;;;;;;;4984236;28;20036;-90
2021/11/29 08:13:53;;;;;;;7.90;1.35;;;;;;;;;;4980289;28;20041;-90
2021/11/29 08:16:20;;;;;;;7.20;1.38;;;;;;;;;;4992934;28;20125;-89
2021/11/29 08:18:46;;;;;;;5.72;1.25;;;;;;;;;;4982270;28;20682;-89
2021/11/29 08:21:12;;;;;;;;;;;;;;;;;;4974768;28;20064;-88
2021/11/29 08:23:38;;;;;;;5.70;0.93;;;;;;;;;;4996233;28;20310;-89
2021/11/29 08:26:05;;;;;;;3.08;0.88;;;;;;;;;;4980576;28;20042;-88
2021/11/29 08:28:31;;;;;;;5.88;1.00;;;;;;;;;;4979277;28;20036;-88
2021/11/29 08:30:57;;;;;;;4.85;0.88;;;;;;;;;;5002215;28;20116;-88
2021/11/29 08:33:23;;;;;;;;;;;;;;;;;;5000051;28;20036;-89
2021/11/29 08:35:50;;;;;;;6.65;1.23;;;;;;;;;;5003022;28;19940;-90
2021/11/29 08:38:16;;;;;;;;;;;;;;;;;;5001653;28;20120;-89
2021/11/29 08:40:42;;;;;;;6.05;0.90;;;;;;;;;;4979874;28;20040;-89
2021/11/29 08:43:10;;;;;;;6.53;1.00;;;;;;;;;;4995422;28;20044;-89
2021/11/29 08:45:37;;;;;;;4.15;0.77;;;;;;;;;;4979763;28;20082;-88
2021/11/29 08:48:05;;;;;;;6.18;0.98;;;;;;;;;;4985404;28;20057;-89
2021/11/29 08:50:31;;;;;;;3.75;0.65;;;;;;;;;;4983875;28;20030;-89
2021/11/29 08:53:02;;;;;;;7.57;1.20;;;;;;;;;;4980009;28;20038;-89
2021/11/29 08:55:29;;;;;;;4.97;0.70;;;;;;;;;;4973977;28;20157;-90
2021/11/29 08:57:55;;;;;;;3.67;1.10;;;;;;;;;;4973314;28;20134;-89
2021/11/29 09:00:21;;;;;;;6.63;0.80;;;;;;;;;;4968660;28;20045;-89
2021/11/29 09:02:47;;;;;;;;;;;;;;;;;;4975190;28;20129;-88
2021/11/29 09:05:15;;;;;;;6.28;0.82;;;;;;;;;;4971283;28;19918;-88
2021/11/29 09:07:41;;;;;;;4.85;0.90;;;;;;;;;;4972988;28;20512;-89
2021/11/29 09:10:08;;;;;;;6.75;1.30;;;;;;;;;;4966720;28;20029;-89
2021/11/29 09:12:35;;;;;;;3.72;0.95;;;;;;;;;;4971884;28;20038;-88
2021/11/29 09:15:02;;;;;;;4.95;1.13;;;;;;;;;;4970153;28;20033;-89
2021/11/29 09:17:28;;;;;;;6.88;1.00;;;;;;;;;;4989241;28;20018;-89
2021/11/29 09:19:54;;;;;;;;;;;;;;;;;;4993960;28;20132;-89
2021/11/29 09:22:21;;;;;;;6.90;1.40;;;;;;;;;;4970167;28;21972;-89
2021/11/29 09:24:47;;;;;;;;;;;;;;;;;;4971767;28;20046;-88
2021/11/29 09:27:13;;;;;;;5.22;1.20;;;;;;;;;;4972091;28;20154;-89
2021/11/29 09:29:39;;;;;;;3.38;0.70;;;;;;;;;;4984905;28;20034;-89
2021/11/29 09:32:05;;;;;;;;;;;;;;;;;;4991311;28;20041;-89
2021/11/29 09:34:31;;;;;;;8.38;2.15;;;;;;;;;;4979125;28;19936;-89
2021/11/29 09:36:58;;;;;;;6.90;1.10;;;;;;;;;;4976136;28;20034;-89
2021/11/29 09:39:25;;;;;;;5.00;1.10;;;;;;;;;;4975152;28;20030;-89
2021/11/29 09:41:51;;;;;;;5.50;0.60;;;;;;;;;;4986708;28;20037;-89
2021/11/29 09:44:18;;;;;;;4.15;0.70;;;;;;;;;;4979085;28;20053;-88
2021/11/29 09:46:45;;;;;;;;;;;;;;;;;;4985722;28;20064;-90
2021/11/29 09:49:12;;;;;;;4.57;1.10;;;;;;;;;;4983413;28;19914;-88
2021/11/29 09:51:38;;;;;;;6.18;1.20;;;;;;;;;;4981040;28;20429;-89
2021/11/29 09:54:08;;;;;;;5.38;1.10;;;;;;;;;;4991587;28;20076;-89
2021/11/29 09:56:34;;;;;;;4.10;0.95;;;;;;;;;;4990464;28;20630;-89
2021/11/29 09:59:01;;;;;;;6.13;0.80;;;;;;;;;;4991087;28;20033;-88
2021/11/29 10:01:27;;;;;;;4.18;0.80;;;;;;;;;;4976817;28;20031;-89
2021/11/29 10:03:54;;;;;;;4.82;0.88;;;;;;;;;;4984089;28;20042;-89
2021/11/29 10:06:20;;;;;;;5.40;1.10;;;;;;;;;;4987924;28;20038;-89
2021/11/29 10:08:48;;;;;;;6.32;0.90;;;;;;;;;;4975721;28;20026;-88
2021/11/29 10:11:17;;;;;;;4.43;1.17;;;;;;;;;;4987703;28;20596;-89
2021/11/29 10:13:51;;;;;;;3.88;0.70;;;;;;;;;;4988289;28;20037;-89
2021/11/29 10:16:36;;;;;;;2.67;0.55;;;;;;;;;;4971155;28;20038;-89
2021/11/29 10:19:04;;;;;;;3.38;0.68;;;;;;;;;;4971394;28;20367;-88
2021/11/29 10:21:30;;;;;;;3.42;0.90;;;;;;;;;;4988893;28;20046;-89
2021/11/29 10:24:00;;;;;;;4.07;1.00;;;;;;;;;;4980595;28;20022;-89
2021/11/29 10:26:29;;;;;;;4.00;0.73;;;;;;;;;;4985007;28;20044;-89
2021/11/29 10:29:00;;;;;;;2.72;0.43;;;;;;;;;;4976912;28;20756;-88
2021/11/29 10:31:29;;;;;;;3.28;0.85;;;;;;;;;;4967087;28;20034;-88
2021/11/29 10:34:03;;;;;;;4.65;0.80;;;;;;;;;;4983361;28;20642;-88
2021/11/29 10:36:50;;;;;;;3.55;0.70;;;;;;;;;;4971288;28;20148;-89
2021/11/29 10:39:19;;;;;;;6.18;1.48;;;;;;;;;;4967514;28;20049;-89
2021/11/29 10:41:46;;;;;;;5.13;1.40;;;;;;;;;;4965962;28;21060;-89
2021/11/29 10:44:18;;;;;;;4.07;1.20;;;;;;;;;;4967540;28;20145;-89
2021/11/29 10:46:46;;;;;;;5.80;1.63;;;;;;;;;;4987229;28;20085;-89
2021/11/29 10:49:13;;;;;;;5.13;1.00;;;;;;;;;;4962880;28;20034;-89
2021/11/29 10:51:41;;;;;;;3.42;0.70;;;;;;;;;;4971866;28;20026;-88
2021/11/29 10:54:11;;;;;;;3.67;0.98;;;;;;;;;;4980466;28;20761;-88
2021/11/29 10:56:38;;;;;;;3.90;1.00;;;;;;;;;;4973833;28;20053;-88
2021/11/29 10:59:06;;;;;;;2.75;0.57;;;;;;;;;;4968241;28;20034;-90
2021/11/29 11:01:41;;;;;;;2.40;0.60;;;;;;;;;;4980415;28;20081;-88
2021/11/29 11:04:18;;;;;;;3.55;0.70;;;;;;;;;;4993385;28;20101;-88
2021/11/29 11:06:50;;;;;;;2.92;0.82;;;;;;;;;;4994104;28;20068;-86
2021/11/29 11:09:22;;;;;;;3.63;0.70;;;;;;;;;;4985076;28;20648;-88
2021/11/29 11:11:52;;;;;;;4.72;1.30;;;;;;;;;;4982787;28;20028;-86
2021/11/29 11:14:23;;;;;;;6.35;2.25;;;;;;;;;;4991041;28;20040;-87
2021/11/29 11:17:03;;;;;;;8.02;2.83;;;;;;;;;;4979122;28;20042;-87
2021/11/29 11:19:31;;;;;;;7.95;2.88;;;;;;;;;;4997994;28;20037;-88
2021/11/29 11:21:59;;;;;;;6.97;1.10;;;;;;;;;;4993560;28;20034;-88
2021/11/29 11:24:34;;;;;;;1.90;0.57;;;;;;;;;;4988567;28;20065;-88
2021/11/29 11:27:03;;;;;;;5.00;1.35;;;;;;;;;;4979274;28;20153;-88
2021/11/29 11:29:35;;;;;;;7.10;2.25;;;;;;;;;;4976293;28;20023;-89
2021/11/29 11:32:28;;;;;;;3.65;0.70;;;;;;;;;;4997358;28;20041;-87
2021/11/29 11:35:03;;;;;;;3.05;0.60;;;;;;;;;;4995639;28;20072;-87
2021/11/29 11:37:31;;;;;;;5.00;1.00;;;;;;;;;;4993942;28;20038;-87
2021/11/29 11:40:07;;;;;;;3.13;0.90;;;;;;;;;;4995581;28;20122;-88
2021/11/29 11:42:34;;;;;;;3.25;0.60;;;;;;;;;;4976368;28;20072;-88
2021/11/29 11:45:05;;;;;;;5.22;0.70;;;;;;;;;;4975634;28;20199;-88
2021/11/29 11:47:35;;;;;;;5.97;0.90;;;;;;;;;;5001523;28;20022;-87
2021/11/29 11:50:02;;;;;;;5.25;1.50;;;;;;;;;;4976906;28;20046;-87
2021/11/29 11:52:29;;;;;;;6.15;1.33;;;;;;;;;;4993675;28;20041;-88
2021/11/29 11:55:00;;;;;;;6.35;0.80;;;;;;;;;;5000910;28;20047;-88
2021/11/29 11:57:27;;;;;;;9.80;3.25;;;;;;;;;;5005703;28;20038;-89
2021/11/29 12:00:03;;;;;;;4.85;1.40;;;;;;;;;;5006303;28;20265;-88
2021/11/29 12:02:45;;;;;;;9.00;2.58;;;;;;;;;;4984721;28;20020;-87
2021/11/29 12:05:13;;;;;;;3.35;0.80;;;;;;;;;;4989750;28;20109;-88
2021/11/29 12:07:40;;;;;;;4.22;1.00;;;;;;;;;;4993654;28;20422;-87
2021/11/29 12:10:25;;;;;;;3.42;0.60;;;;;;;;;;4979685;28;20039;-88
2021/11/29 12:13:01;;;;;;;4.10;0.90;;;;;;;;;;4967906;28;20721;-87
2021/11/29 12:15:43;;;;;;;3.70;0.60;;;;;;;;;;4974218;28;20483;-88
2021/11/29 12:18:10;;;;;;;4.18;0.80;;;;;;;;;;4967745;28;20030;-87
2021/11/29 12:20:37;;;;;;;6.82;0.65;;;;;;;;;;4965003;28;20036;-87
2021/11/29 12:23:04;;;;;;;7.20;1.20;;;;;;;;;;4972867;28;20752;-88
2021/11/29 12:25:32;;;;;;;6.72;1.15;;;;;;;;;;4960323;28;20042;-87
2021/11/29 12:28:02;;;;;;;8.30;2.60;;;;;;;;;;4974228;28;20041;-87
2021/11/29 12:30:36;;;;;;;4.03;0.88;;;;;;;;;;4958958;28;20951;-88
2021/11/29 12:33:04;;;;;;;5.07;1.50;;;;;;;;;;4973733;28;20052;-88
2021/11/29 12:35:50;;;;;;;9.15;2.17;;;;;;;;;;4959110;28;20491;-88
2021/11/29 12:38:17;;;;;;;6.65;1.20;;;;;;;;;;4965281;28;20046;-88
2021/11/29 12:40:57;;;;;;;10.30;4.47;;;;;;;;;;4961219;28;20045;-88
2021/11/29 12:43:35;;;;;;;10.65;4.13;;;;;;;;;;4968539;28;20735;-88
2021/11/29 12:46:21;;;;;;;5.28;1.05;;;;;;;;;;4977558;28;20042;-88
2021/11/29 12:48:48;;;;;;;6.25;0.93;;;;;;;;;;4978661;28;20030;-86
2021/11/29 12:51:15;;;;;;;6.07;1.48;;;;;;;;;;4955748;28;20048;-87
2021/11/29 12:53:42;;;;;;;3.72;0.93;;;;;;;;;;4979428;28;20556;-87
2021/11/29 12:56:16;;;;;;;6.70;1.30;;;;;;;;;;4958844;28;20041;-86
2021/11/29 12:58:52;;;;;;;5.65;1.00;;;;;;;;;;4961894;28;20034;-87
2021/11/29 13:01:18;;;;;;;6.90;1.95;;;;;;;;;;4979654;28;20014;-86
2021/11/29 13:03:46;;;;;;;4.75;1.33;;;;;;;;;;4974413;28;20447;-87
2021/11/29 13:06:12;;;;;;;5.88;1.27;;;;;;;;;;4962161;28;20034;-86
2021/11/29 13:08:51;;;;;;;4.13;1.15;;;;;;;;;;4979474;28;20549;-87
2021/11/29 13:11:32;;;;;;;6.03;1.58;;;;;;;;;;4954304;28;20053;-86
2021/11/29 13:14:17;;;;;;;4.85;1.27;;;;;;;;;;4958796;28;20037;-87
2021/11/29 13:16:46;;;;;;;2.95;0.80;;;;;;;;;;4962546;28;20046;-86
2021/11/29 13:19:15;;;;;;;4.85;1.40;;;;;;;;;;4951550;28;20702;-87
2021/11/29 13:21:48;;;;;;;4.65;1.17;;;;;;;;;;4959445;28;20038;-86
2021/11/29 13:24:20;;;;;;;2.88;0.95;;;;;;;;;;4969544;28;20034;-86
2021/11/29 13:26:48;;;;;;;6.95;2.10;;;;;;;;;;4975164;28;20092;-86
2021/11/29 13:29:31;;;;;;;5.00;0.90;;;;;;;;;;4957798;28;20041;-87
2021/11/29 13:32:06;;;;;;;6.60;1.63;;;;;;;;;;4952440;28;20463;-86
2021/11/29 13:34:34;;;;;;;6.05;1.95;;;;;;;;;;4974656;28;20042;-86
2021/11/29 13:37:02;;;;;;;6.70;2.13;;;;;;;;;;4955199;28;20042;-86
2021/11/29 13:39:30;;;;;;;3.25;0.88;;;;;;;;;;4957442;28;20584;-86
2021/11/29 13:42:14;;;;;;;4.95;1.00;;;;;;;;;;4972227;28;20022;-87
2021/11/29 13:44:47;;;;;;;5.38;0.90;;;;;;;;;;4959918;28;21186;-87
2021/11/29 13:47:13;;;;;;;5.28;1.60;;;;;;;;;;4972823;28;20033;-87
2021/11/29 13:49:53;;;;;;;4.40;0.80;;;;;;;;;;4960303;28;20038;-86
2021/11/29 13:52:20;;;;;;;4.63;1.00;;;;;;;;;;4958908;28;20092;-86
2021/11/29 13:55:07;;;;;;;3.67;0.82;;;;;;;;;;4962945;28;20142;-86
2021/11/29 13:57:35;;;;;;;3.58;0.95;;;;;;;;;;4961914;28;20037;-87
2021/11/29 14:00:05;;;;;;;2.72;0.80;;;;;;;;;;4960667;28;20033;-87
2021/11/29 14:02:31;;;;;;;5.45;1.95;;;;;;;;;;4967293;28;20895;-87
2021/11/29 14:04:57;;;;;;;4.25;0.82;;;;;;;;;;4987135;28;20030;-87
2021/11/29 14:07:24;;;;;;;3.55;1.20;;;;;;;;;;4959177;28;20034;-86
2021/11/29 14:09:54;;;;;;;5.63;1.48;;;;;;;;;;4962513;28;21021;-86
2021/11/29 14:12:20;;;;;;;3.17;0.90;;;;;;;;;;4956978;28;20049;-88
2021/11/29 14:15:09;;;;;;;1.77;0.40;;;;;;;;;;4961182;28;20041;-82
2021/11/29 14:17:36;;;;;;;1.83;0.45;;;;;;;;;;4967110;28;20018;-88
2021/11/29 14:20:13;;;;;;;3.90;0.80;;;;;;;;;;4974042;28;20496;-88
2021/11/29 14:22:48;;;;;;;3.05;0.90;;;;;;;;;;4964998;28;20449;-85
2021/11/29 14:25:14;;;;;;;7.22;1.23;;;;;;;;;;4980884;28;21565;-86
2021/11/29 14:27:41;;;;;;;3.92;1.10;;;;;;;;;;4969248;28;20905;-86
2021/11/29 14:30:07;;;;;;;5.55;0.70;;;;;;;;;;4965724;28;20038;-87
2021/11/29 14:32:34;;;;;;;7.75;1.77;;;;;;;;;;4970351;28;20022;-86
2021/11/29 14:35:03;;;;;;;2.95;0.80;;;;;;;;;;4969379;28;20080;-79
2021/11/29 14:37:32;;;;;;;5.85;1.20;;;;;;;;;;4962375;28;20641;-78
2021/11/29 14:40:06;;;;;;;5.55;1.40;;;;;;;;;;4957303;28;20038;-80
2021/11/29 14:42:34;;;;;;;4.07;1.00;;;;;;;;;;4958647;28;20508;-79
2021/11/29 14:45:02;;;;;;;3.05;0.85;;;;;;;;;;4973532;28;20501;-78
2021/11/29 14:47:32;;;;;;;4.65;1.67;;;;;;;;;;4973382;28;20057;-81
2021/11/29 14:50:10;;;;;;;3.13;0.93;;;;;;;;;;4963706;28;20160;-78
2021/11/29 14:52:38;;;;;;;7.43;1.23;;;;;;;;;;4975243;28;20096;-80
2021/11/29 14:55:21;;;;;;;5.22;1.40;;;;;;;;;;4951565;28;20080;-81